Terminal Aerodrome Forecast
Issued by NWS

Home | Current Version | Previous Version | Graphics & Text | Print | Product List | Glossary Off
Versions: 1 2 3 4 5 6 7 8 9 10 11 12 13 14 15 16

509
FTUS43 KMPX 110520
TAFRNH
TAF
KRNH 110520Z 1106/1206 VRB03KT P6SM SCT120
     FM111900 21005KT P6SM OVC050
     FM120000 22003KT P6SM OVC025=

USA.gov is the U.S. government's official web portal to all federal, state and local government web resources and services.